Fort Chaffee, Arkansas
Current Conditions -  °F | °C
As of 9:53 AM on Thursday 23 Oct 2014 (Local Time) from KFSM Reporting Station
Broken Clouds Broken Clouds  
Wind Chill: 58°   Ceiling: 11000
Heat Index: 58°   Visibility: 10mi
Dew Point: 47°   Wind: 9mph
Humidity: 67%   Direction: 80°E
Pressure: 30.2"   Gusts: NA
Location:  35.2393°N, 94.1304°W
Report Text: KFSM 231453Z 08008KT 10SM BKN110 14/08 A3020 RMK AO2 SLP225 T01440083 53011
Loading
Personal Weather Stations






























Interactive Weather Map
Tropical Storm Tracking
New forecast layout! Learn more

10-Day Weather Forecast

Advertisements
Track Severe Weather on mobile